createdAt,value
2023-01-05T00:00:34.582Z,11.76
2023-01-05T00:03:37.684Z,11.72
2023-01-05T00:06:42.280Z,11.75
2023-01-05T00:09:44.979Z,11.75
2023-01-05T00:13:05.220Z,11.75
2023-01-05T00:16:30.672Z,11.90
2023-01-05T00:19:50.983Z,11.80
2023-01-05T00:22:55.418Z,11.82
2023-01-05T00:25:57.925Z,11.94
2023-01-05T00:29:00.679Z,12.05
2023-01-05T00:32:03.334Z,12.01
2023-01-05T00:35:06.802Z,12.12
2023-01-05T00:38:11.367Z,12.22
2023-01-05T00:41:14.018Z,12.04
2023-01-05T00:44:16.604Z,12.18
2023-01-05T00:47:19.183Z,12.31
2023-01-05T00:50:23.532Z,12.27
2023-01-05T00:53:27.534Z,12.32
2023-01-05T00:56:30.124Z,12.44
2023-01-05T00:59:32.740Z,12.40
2023-01-05T01:02:35.328Z,12.30
2023-01-05T01:05:37.882Z,12.34
2023-01-05T01:08:41.791Z,12.33
2023-01-05T01:11:44.433Z,12.48
2023-01-05T01:14:48.302Z,12.38
2023-01-05T01:17:51.140Z,12.49
2023-01-05T01:20:53.801Z,12.52
2023-01-05T01:23:57.759Z,12.52
2023-01-05T01:27:00.314Z,12.52
2023-01-05T01:30:03.084Z,12.33
2023-01-05T01:33:05.639Z,12.21
2023-01-05T01:36:10.813Z,12.27
2023-01-05T01:39:14.944Z,12.28
2023-01-05T01:42:17.908Z,12.29
2023-01-05T01:45:22.955Z,12.40
2023-01-05T01:48:26.736Z,12.26
2023-01-05T01:51:33.118Z,12.19
2023-01-05T01:54:37.157Z,12.41
2023-01-05T01:57:39.883Z,12.36
2023-01-05T02:00:42.754Z,12.34
2023-01-05T02:03:46.095Z,12.33
2023-01-05T02:06:50.050Z,12.35
2023-01-05T02:09:53.958Z,12.49
2023-01-05T02:13:06.092Z,12.49
2023-01-05T02:16:12.819Z,12.42
2023-01-05T02:19:57.358Z,12.47
2023-01-05T02:23:14.665Z,12.57
2023-01-05T02:26:40.399Z,12.44
2023-01-05T02:30:10.974Z,12.25
2023-01-05T02:33:24.457Z,12.47
2023-01-05T02:36:30.724Z,12.50
2023-01-05T02:39:35.901Z,12.31
2023-01-05T02:42:39.793Z,12.35
2023-01-05T02:45:42.548Z,12.32
2023-01-05T02:48:48.183Z,12.34
2023-01-05T02:51:53.351Z,12.60
2023-01-05T02:54:59.060Z,12.61
2023-01-05T02:58:05.063Z,12.63
2023-01-05T03:01:11.990Z,12.31
2023-01-05T03:04:21.349Z,12.53
2023-01-05T03:07:27.010Z,12.37
2023-01-05T03:10:47.098Z,12.48
2023-01-05T03:13:52.157Z,12.41
2023-01-05T03:16:57.341Z,12.53
2023-01-05T03:20:01.955Z,12.58
2023-01-05T03:23:24.541Z,12.39
2023-01-05T03:26:44.592Z,12.64
2023-01-05T03:30:05.048Z,12.65
2023-01-05T03:33:28.940Z,12.76
2023-01-05T03:36:34.041Z,12.54
2023-01-05T03:39:39.568Z,12.50
2023-01-05T03:42:42.344Z,12.63
2023-01-05T03:45:46.500Z,12.68
2023-01-05T03:48:49.210Z,12.82
2023-01-05T03:51:53.208Z,12.82
2023-01-05T03:54:55.773Z,12.84
2023-01-05T03:57:58.504Z,12.93
2023-01-05T04:01:02.220Z,12.97
2023-01-05T04:04:05.199Z,13.01
2023-01-05T04:07:09.245Z,12.78
2023-01-05T04:10:11.955Z,12.70
2023-01-05T04:13:14.580Z,12.79
2023-01-05T04:16:17.471Z,12.88
2023-01-05T04:19:20.259Z,12.93
2023-01-05T04:22:27.398Z,13.04
2023-01-05T04:25:30.409Z,13.12
2023-01-05T04:28:33.162Z,13.08
2023-01-05T04:31:35.936Z,13.04
2023-01-05T04:34:38.722Z,13.10
2023-01-05T04:37:42.767Z,13.13
2023-01-05T04:40:49.244Z,13.15
2023-01-05T04:43:51.935Z,13.07
2023-01-05T04:46:54.524Z,12.96
2023-01-05T04:49:57.594Z,12.87
2023-01-05T04:53:01.893Z,13.04
2023-01-05T04:56:04.752Z,13.08
2023-01-05T04:59:07.395Z,13.18
2023-01-05T05:02:10.198Z,13.25
2023-01-05T05:05:12.894Z,13.36
2023-01-05T05:08:17.045Z,13.38
2023-01-05T05:11:19.820Z,13.39
2023-01-05T05:14:22.631Z,13.38
2023-01-05T05:17:25.412Z,13.37
2023-01-05T05:20:28.074Z,13.32
2023-01-05T05:23:32.057Z,13.34
2023-01-05T05:26:34.778Z,13.30
2023-01-05T05:29:37.378Z,13.33
2023-01-05T05:32:44.165Z,13.16
2023-01-05T05:35:47.254Z,12.88
2023-01-05T05:38:51.507Z,12.85
2023-01-05T05:41:54.048Z,12.73
2023-01-05T05:44:56.992Z,12.59
2023-01-05T05:48:01.842Z,12.58
2023-01-05T05:51:04.753Z,12.69
2023-01-05T05:54:08.699Z,12.53
2023-01-05T05:57:11.516Z,12.27
2023-01-05T06:00:15.486Z,12.23
2023-01-05T06:03:18.168Z,12.04
2023-01-05T06:06:20.799Z,11.92
2023-01-05T06:09:24.969Z,11.69
2023-01-05T06:12:27.812Z,11.60
2023-01-05T06:15:30.726Z,11.50
2023-01-05T06:18:33.508Z,11.41
2023-01-05T06:21:37.222Z,11.22
2023-01-05T06:24:41.487Z,11.01
2023-01-05T06:27:44.222Z,11.04
2023-01-05T06:30:46.780Z,11.18
2023-01-05T06:33:49.373Z,11.12
2023-01-05T06:36:51.972Z,11.04
2023-01-05T06:39:56.371Z,10.94
2023-01-05T06:42:59.077Z,10.98
2023-01-05T06:46:01.862Z,11.14
2023-01-05T06:49:04.748Z,11.16
2023-01-05T06:52:10.902Z,11.09
2023-01-05T06:55:22.162Z,11.21
2023-01-05T06:58:24.813Z,11.24
2023-01-05T07:01:27.559Z,11.20
2023-01-05T07:04:30.321Z,11.22
2023-01-05T07:07:32.919Z,11.25
2023-01-05T07:10:36.992Z,11.24
2023-01-05T07:13:39.963Z,11.27
2023-01-05T07:16:42.754Z,11.37
2023-01-05T07:19:45.560Z,11.35
2023-01-05T07:22:48.526Z,11.39
2023-01-05T07:25:52.589Z,11.30
2023-01-05T07:28:55.399Z,11.33
2023-01-05T07:31:58.043Z,11.43
2023-01-05T07:35:00.879Z,11.54
2023-01-05T07:38:03.550Z,11.60
2023-01-05T07:41:09.977Z,11.77
2023-01-05T07:44:12.785Z,11.76
2023-01-05T07:47:15.404Z,11.94
2023-01-05T07:50:17.969Z,12.18
2023-01-05T07:53:20.747Z,12.13
2023-01-05T07:56:24.822Z,12.25
2023-01-05T07:59:27.550Z,12.14
2023-01-05T08:02:35.682Z,12.35
2023-01-05T08:05:39.132Z,12.28
2023-01-05T08:08:42.106Z,12.39
2023-01-05T08:11:46.166Z,12.31
2023-01-05T08:14:48.763Z,12.49
2023-01-05T08:17:51.570Z,12.27
2023-01-05T08:20:56.050Z,12.48
2023-01-05T08:23:59.718Z,12.45
2023-01-05T08:27:04.139Z,12.49
2023-01-05T08:30:08.348Z,12.61
2023-01-05T08:33:10.995Z,12.59
2023-01-05T08:36:15.191Z,12.50
2023-01-05T08:39:17.890Z,12.66
2023-01-05T08:42:22.046Z,12.50
2023-01-05T08:45:24.681Z,12.63
2023-01-05T08:48:27.380Z,12.60
2023-01-05T08:51:31.620Z,12.86
2023-01-05T08:54:34.259Z,12.77
2023-01-05T08:57:38.268Z,12.64
2023-01-05T09:00:40.947Z,12.89
2023-01-05T09:03:43.900Z,12.87
2023-01-05T09:06:46.739Z,12.67
2023-01-05T09:09:49.666Z,12.81
2023-01-05T09:12:53.672Z,12.68
2023-01-05T09:15:56.289Z,12.84
2023-01-05T09:18:59.377Z,12.80
2023-01-05T09:22:02.182Z,13.01
2023-01-05T09:25:05.502Z,12.82
2023-01-05T09:28:09.669Z,12.95
2023-01-05T09:31:14.039Z,13.23
2023-01-05T09:34:18.039Z,13.07
2023-01-05T09:37:20.600Z,13.04
2023-01-05T09:40:23.474Z,13.11
2023-01-05T09:43:30.378Z,13.16
2023-01-05T09:46:36.538Z,13.35
2023-01-05T09:49:40.536Z,13.06
2023-01-05T09:52:43.464Z,12.99
2023-01-05T09:55:49.290Z,12.96
2023-01-05T09:58:54.319Z,13.11
2023-01-05T10:02:00.793Z,13.14
2023-01-05T10:05:05.303Z,13.26
2023-01-05T10:08:09.524Z,13.21
2023-01-05T10:11:33.665Z,13.48
2023-01-05T10:14:39.203Z,13.76
2023-01-05T10:17:43.583Z,13.55
2023-01-05T10:20:53.110Z,13.53
2023-01-05T10:24:09.025Z,13.74
2023-01-05T10:27:25.124Z,13.54
2023-01-05T10:30:40.771Z,13.72
2023-01-05T10:33:53.812Z,13.75
2023-01-05T10:37:10.133Z,13.98
2023-01-05T10:40:22.907Z,14.31
2023-01-05T10:43:39.844Z,14.21
2023-01-05T10:46:52.329Z,14.22
2023-01-05T10:49:55.618Z,14.34
2023-01-05T10:52:58.978Z,14.44
2023-01-05T10:56:04.816Z,14.14
2023-01-05T10:59:09.702Z,13.89
2023-01-05T11:02:14.604Z,14.13
2023-01-05T11:05:29.023Z,13.78
2023-01-05T11:08:32.550Z,13.74
2023-01-05T11:11:35.563Z,13.62
2023-01-05T11:14:43.192Z,13.63
2023-01-05T11:17:47.413Z,13.74
2023-01-05T11:21:22.480Z,13.78
2023-01-05T11:24:30.950Z,13.77
2023-01-05T11:27:33.617Z,13.74
2023-01-05T11:30:37.587Z,13.92
2023-01-05T11:33:41.664Z,13.84
2023-01-05T11:36:51.204Z,13.62
2023-01-05T11:39:56.109Z,13.85
2023-01-05T11:42:58.963Z,13.90
2023-01-05T11:46:03.519Z,14.06
2023-01-05T11:49:07.460Z,13.76
2023-01-05T11:52:26.341Z,13.46
2023-01-05T11:55:35.066Z,13.31
2023-01-05T11:58:43.888Z,13.54
2023-01-05T12:02:04.121Z,13.77
2023-01-05T12:05:26.700Z,14.01
2023-01-05T12:08:32.208Z,14.17
2023-01-05T12:11:40.491Z,14.39
2023-01-05T12:14:54.837Z,14.15
2023-01-05T12:18:03.332Z,14.27
2023-01-05T12:21:08.738Z,14.14
2023-01-05T12:24:36.379Z,14.14
2023-01-05T12:28:01.734Z,13.93
2023-01-05T12:35:04.012Z,14.04
2023-01-05T12:38:23.471Z,13.74
2023-01-05T12:41:38.896Z,14.08
2023-01-05T12:45:31.254Z,13.91
2023-01-05T12:48:36.290Z,14.07
2023-01-05T12:51:43.729Z,14.33
2023-01-05T12:54:50.807Z,13.96
2023-01-05T12:57:57.519Z,13.91
2023-01-05T13:01:01.028Z,14.21
2023-01-05T13:04:04.037Z,13.87
2023-01-05T13:07:10.415Z,13.78
2023-01-05T13:10:19.360Z,14.06
2023-01-05T13:13:25.702Z,14.01
2023-01-05T13:16:30.235Z,13.98
2023-01-05T13:19:38.350Z,13.93
2023-01-05T13:22:43.846Z,14.26
2023-01-05T13:25:51.729Z,14.20
2023-01-05T13:28:56.677Z,14.37
2023-01-05T13:32:07.283Z,14.07
2023-01-05T13:35:31.051Z,13.87
2023-01-05T13:38:58.549Z,14.11
2023-01-05T13:42:15.785Z,14.28
2023-01-05T13:45:46.752Z,14.37
2023-01-05T13:49:27.794Z,14.24
2023-01-05T13:52:39.504Z,13.98
2023-01-05T13:55:47.550Z,13.94
2023-01-05T13:58:53.824Z,13.98
2023-01-05T14:01:56.964Z,13.81
2023-01-05T14:05:00.142Z,13.60
2023-01-05T14:08:04.699Z,13.93
2023-01-05T14:11:10.194Z,13.71
2023-01-05T14:14:27.284Z,13.76
2023-01-05T14:17:52.218Z,13.60
2023-01-05T14:20:56.387Z,13.59
2023-01-05T14:23:59.919Z,13.46
2023-01-05T14:27:07.746Z,13.35
2023-01-05T14:30:24.588Z,13.26
2023-01-05T14:33:27.290Z,13.24
2023-01-05T14:36:32.660Z,13.38
2023-01-05T14:39:43.446Z,13.28
2023-01-05T14:42:48.492Z,13.27
2023-01-05T14:46:05.029Z,13.33
2023-01-05T14:49:09.536Z,13.27
2023-01-05T14:52:18.285Z,13.44
2023-01-05T14:55:37.281Z,13.43
2023-01-05T14:59:06.582Z,13.32
2023-01-05T15:02:27.925Z,13.24
2023-01-05T15:05:31.681Z,13.28
2023-01-05T15:08:58.071Z,13.40
2023-01-05T15:12:19.443Z,13.44
2023-01-05T15:15:44.626Z,13.35
2023-01-05T15:19:03.030Z,13.38
2023-01-05T15:22:37.267Z,13.32
2023-01-05T15:26:07.626Z,13.29
2023-01-05T15:29:38.757Z,13.17
2023-01-05T15:32:43.626Z,13.02
2023-01-05T15:35:51.253Z,13.00
2023-01-05T15:38:54.692Z,13.09
2023-01-05T15:42:00.999Z,13.12
2023-01-05T15:45:03.796Z,12.97
2023-01-05T15:48:09.271Z,13.08
2023-01-05T15:51:23.059Z,13.06
2023-01-05T15:54:27.919Z,13.08
2023-01-05T15:57:31.344Z,13.01
2023-01-05T16:00:36.093Z,13.01
2023-01-05T16:03:40.399Z,13.01
2023-01-05T16:06:47.089Z,12.97
2023-01-05T16:09:49.822Z,12.92
2023-01-05T16:12:55.987Z,12.95
2023-01-05T16:16:00.151Z,12.93
2023-01-05T16:19:07.930Z,12.97
2023-01-05T16:22:17.737Z,12.97
2023-01-05T16:25:22.344Z,12.96
2023-01-05T16:28:25.914Z,12.91
2023-01-05T16:31:29.588Z,12.84
2023-01-05T16:34:33.236Z,12.89
2023-01-05T16:37:37.191Z,12.83
2023-01-05T16:40:42.254Z,12.88
2023-01-05T16:43:47.929Z,12.89
2023-01-05T16:47:05.482Z,12.83
2023-01-05T16:50:41.477Z,12.86
2023-01-05T16:53:46.953Z,12.86
2023-01-05T16:56:57.877Z,12.83
2023-01-05T17:00:00.815Z,12.79
2023-01-05T17:03:04.697Z,12.76
2023-01-05T17:06:09.323Z,12.66
2023-01-05T17:09:20.396Z,12.64
2023-01-05T17:12:23.390Z,12.69
2023-01-05T17:15:29.454Z,12.66
2023-01-05T17:18:32.680Z,12.68
2023-01-05T17:21:35.480Z,12.58
2023-01-05T17:24:39.635Z,12.58
2023-01-05T17:27:42.906Z,12.47
2023-01-05T17:30:46.210Z,12.58
2023-01-05T17:33:48.848Z,12.47
2023-01-05T17:36:54.922Z,12.42
2023-01-05T17:39:58.905Z,12.33
2023-01-05T17:43:02.968Z,12.35
2023-01-05T17:46:06.013Z,12.33
2023-01-05T17:49:10.102Z,12.37
2023-01-05T17:52:13.972Z,12.46
2023-01-05T17:55:18.549Z,12.39
2023-01-05T17:58:21.162Z,12.30
2023-01-05T18:01:24.987Z,12.19
2023-01-05T18:04:28.777Z,12.09
2023-01-05T18:07:32.008Z,12.07
2023-01-05T18:10:36.955Z,12.00
2023-01-05T18:16:46.299Z,11.76
2023-01-05T18:19:49.091Z,11.80
2023-01-05T18:22:51.853Z,11.75
2023-01-05T18:25:56.202Z,11.81
2023-01-05T18:28:58.913Z,11.72
2023-01-05T18:32:01.915Z,11.62
2023-01-05T18:35:09.303Z,11.57
2023-01-05T18:38:13.368Z,11.69
2023-01-05T18:41:17.522Z,11.73
2023-01-05T18:44:20.284Z,11.76
2023-01-05T18:47:22.986Z,11.75
2023-01-05T18:50:25.743Z,11.71
2023-01-05T18:53:28.500Z,11.68
2023-01-05T18:56:33.029Z,11.81
2023-01-05T18:59:35.594Z,12.04
2023-01-05T19:02:38.170Z,12.19
2023-01-05T19:05:42.291Z,12.26
2023-01-05T19:08:48.767Z,12.29
2023-01-05T19:11:52.949Z,12.17
2023-01-05T19:14:55.628Z,12.16
2023-01-05T19:17:58.334Z,12.19
2023-01-05T19:21:01.014Z,12.15
2023-01-05T19:24:05.326Z,12.04
2023-01-05T19:27:09.578Z,11.95
2023-01-05T19:30:14.411Z,11.72
2023-01-05T19:33:17.059Z,11.29
2023-01-05T19:36:22.917Z,11.01
2023-01-05T19:39:27.149Z,10.86
2023-01-05T19:42:32.280Z,10.85
2023-01-05T19:45:35.151Z,10.77
2023-01-05T19:48:39.109Z,10.89
2023-01-05T19:51:41.865Z,10.94
2023-01-05T19:54:45.144Z,10.88
2023-01-05T19:57:51.232Z,10.93
2023-01-05T20:00:54.700Z,11.06
2023-01-05T20:03:58.327Z,11.18
2023-01-05T20:07:04.038Z,11.53
2023-01-05T20:10:08.031Z,11.87
2023-01-05T20:13:11.926Z,12.09
2023-01-05T20:16:15.128Z,12.15
2023-01-05T20:19:18.972Z,12.35
2023-01-05T20:22:24.075Z,12.19
2023-01-05T20:25:27.061Z,12.37
2023-01-05T20:28:31.910Z,12.42
2023-01-05T20:31:37.920Z,12.55
2023-01-05T20:34:41.635Z,12.56
2023-01-05T20:37:44.537Z,12.58
2023-01-05T20:40:47.744Z,12.62
2023-01-05T20:43:53.609Z,12.63
2023-01-05T20:46:56.747Z,12.59
2023-01-05T20:49:59.726Z,12.51
2023-01-05T20:53:02.558Z,12.43
2023-01-05T20:56:06.829Z,12.46
2023-01-05T20:59:17.310Z,12.50
2023-01-05T21:02:24.302Z,12.44
2023-01-05T21:05:27.661Z,12.33
2023-01-05T21:08:30.381Z,12.26
2023-01-05T21:11:33.139Z,12.18
2023-01-05T21:14:37.674Z,11.99
2023-01-05T21:17:40.762Z,11.80
2023-01-05T21:20:45.447Z,11.65
2023-01-05T21:23:49.729Z,11.44
2023-01-05T21:26:53.127Z,11.42
2023-01-05T21:29:57.109Z,11.28
2023-01-05T21:32:59.727Z,11.36
2023-01-05T21:36:02.750Z,11.24
2023-01-05T21:39:08.481Z,11.02
2023-01-05T21:42:29.419Z,10.93
2023-01-05T21:45:34.893Z,11.01
2023-01-05T21:48:37.518Z,11.14
2023-01-05T21:51:57.703Z,11.22
2023-01-05T21:55:29.910Z,11.33
2023-01-05T21:58:33.440Z,11.39
2023-01-05T22:01:39.619Z,11.33
2023-01-05T22:04:42.963Z,11.12
2023-01-05T22:07:45.933Z,10.93
2023-01-05T22:10:54.854Z,10.73
2023-01-05T22:13:57.611Z,10.62
2023-01-05T22:17:01.856Z,10.59
2023-01-05T22:20:04.961Z,10.65
2023-01-05T22:23:09.724Z,10.85
2023-01-05T22:26:14.411Z,11.09
2023-01-05T22:29:18.820Z,11.26
2023-01-05T22:32:22.937Z,11.39
2023-01-05T22:35:25.616Z,11.65
2023-01-05T22:38:28.761Z,11.90
2023-01-05T22:41:32.319Z,12.10
2023-01-05T22:44:34.947Z,12.31
2023-01-05T22:47:39.935Z,12.46
2023-01-05T22:50:42.725Z,12.51
2023-01-05T22:53:46.466Z,12.61
2023-01-05T22:56:49.349Z,12.58
2023-01-05T22:59:52.135Z,12.45
2023-01-05T23:02:57.009Z,12.54
2023-01-05T23:05:59.832Z,12.45
2023-01-05T23:09:06.347Z,12.54
2023-01-05T23:12:09.636Z,12.46
2023-01-05T23:15:13.230Z,12.41
2023-01-05T23:18:17.241Z,12.30
2023-01-05T23:21:21.164Z,12.19
2023-01-05T23:24:24.469Z,12.17
2023-01-05T23:27:27.486Z,12.12
2023-01-05T23:30:30.280Z,12.24
2023-01-05T23:33:35.775Z,12.24
2023-01-05T23:36:38.678Z,12.23
2023-01-05T23:39:41.588Z,12.15
2023-01-05T23:42:47.110Z,12.16
2023-01-05T23:45:50.159Z,12.15
2023-01-05T23:48:54.619Z,12.17
2023-01-05T23:51:57.797Z,12.41
2023-01-05T23:55:00.340Z,12.45
2023-01-05T23:58:03.035Z,12.60
